MSC Krittika — H3RV — position and weather

sailwx.info

Track history (hours):
 
Tides and Currents Weather Stations Pressure Air Temp Water Temp Dewpoint Dewpoint Depression Visibility Wind Speed Wind Dir Waves Ship Positions

MSC Krittika

Last reported at 2014-Jul-28 19:20 UTC. Time now 2014-Jul-28 22:29 UTC.
Position N 34°38' E 138°13'.

Length 202 m; draft 8.2 m.

Type: Ship (hazmat cat A). MMSI: 354725000.

Date/timePositionNaut miles runAvg speedWind from/ knotsBaromVisibWave heightAir tempDewpointWater temp
2014-Jul-28 19:20N 34°38' E 138°13'0 0.0
2014-Jul-28 18:32N 34°38' E 138°13'166 3.6
2014-Jul-26 20:33N 33°55' E 134°58'1414.2
2014-Jul-26 19:34N 34°09' E 134°56'1 1.1
2014-Jul-26 18:33N 34°10' E 134°57'1 0.6
2014-Jul-26 17:33N 34°10' E 134°57'0 0.3
2014-Jul-26 16:33N 34°11' E 134°57'1 0.8
2014-Jul-26 15:33N 34°11' E 134°57'1312.7
2014-Jul-26 14:32N 34°24' E 135°02'1616.5
2014-Jul-26 13:33N 34°36' E 135°15'5 3.9
2014-Jul-26 12:22N 34°40' E 135°14'0 0.0
2014-Jul-26 11:28N 34°40' E 135°14'0 0.0
2014-Jul-26 10:16N 34°40' E 135°14'0 0.0
2014-Jul-26 09:28N 34°40' E 135°14'0 0.0
2014-Jul-26 08:28N 34°40' E 135°14'0 0.0
2014-Jul-26 07:28N 34°40' E 135°14'0 0.0
2014-Jul-26 06:28N 34°40' E 135°14'0 0.0
2014-Jul-26 05:28N 34°40' E 135°14'0 0.0
2014-Jul-26 04:22N 34°40' E 135°14'3 4.2
2014-Jul-26 03:33N 34°37' E 135°17'1313.5
2014-Jul-26 02:34N 34°26' E 135°07'1212.2
2014-Jul-26 01:33N 34°16' E 134°59'1110.8
2014-Jul-26 00:33N 34°05' E 134°59'1313.0
2014-Jul-25 23:33N 33°52' E 134°59'3216.2
2014-Jul-25 21:33N 33°24' E 134°41'2319.5
2014-Jul-25 20:24N 33°07' E 134°23'21013.1
2014-Jul-25 04:26N 34°03' E 130°21'1213.0
2014-Jul-25 03:33N 33°51' E 130°20'1312.8
2014-Jul-25 02:33N 33°39' E 130°18'5 4.8
2014-Jul-25 01:32N 33°39' E 130°24'0 0.0
2014-Jul-25 00:32N 33°39' E 130°24'0 0.0
2014-Jul-24 23:32N 33°39' E 130°24'0 0.0
2014-Jul-24 22:32N 33°39' E 130°24'0 0.0
2014-Jul-24 21:32N 33°39' E 130°24'0 0.0
2014-Jul-24 20:32N 33°39' E 130°24'0 0.0
2014-Jul-24 19:32N 33°39' E 130°24'0 0.0
2014-Jul-24 18:32N 33°39' E 130°24'0 0.0
2014-Jul-24 17:32N 33°39' E 130°24'0 0.0
2014-Jul-24 16:32N 33°39' E 130°24'0 0.0
2014-Jul-24 15:32N 33°39' E 130°24'0 0.0
2014-Jul-24 14:32N 33°39' E 130°24'0 0.0
2014-Jul-24 13:32N 33°39' E 130°24'0 0.0
2014-Jul-24 12:32N 33°39' E 130°24'0 0.2
2014-Jul-24 11:32N 33°39' E 130°24'7 7.4
2014-Jul-24 10:33N 33°41' E 130°15'5 5.2
2014-Jul-24 09:33N 33°44' E 130°10'1514.7
2014-Jul-24 08:33N 33°41' E 129°53'78416.6
2014-Jul-22 09:23N 24°30' E 119°16'5416.9
2014-Jul-22 06:09N 23°57' E 118°28'1017.2
2014-Jul-22 05:33N 23°50' E 118°20'1817.4
2014-Jul-22 04:30N 23°39' E 118°05'1717.0
2014-Jul-22 03:32N 23°27' E 117°52'1716.4
2014-Jul-22 02:29N 23°15' E 117°38'3917.0
2014-Jul-22 00:11N 22°48' E 117°07'17015.7
2014-Jul-21 13:19N 22°18' E 114°06'1011.1
2014-Jul-21 12:23N 22°22' E 113°55'6 6.7
2014-Jul-21 11:33N 22°27' E 113°53'1 0.6
2014-Jul-21 09:28N 22°28' E 113°53'0 0.1
2014-Jul-21 08:22N 22°28' E 113°53'0 0.0
2014-Jul-21 07:10N 22°28' E 113°53'0 0.1
2014-Jul-21 06:22N 22°28' E 113°53'0 0.0
2014-Jul-21 05:22N 22°28' E 113°53'0 0.1
2014-Jul-21 04:28N 22°28' E 113°53'0 0.0
2014-Jul-21 03:16N 22°28' E 113°53'0 0.1
2014-Jul-21 02:16N 22°28' E 113°53'0 0.0
2014-Jul-21 01:28N 22°28' E 113°53'0 0.0
2014-Jul-21 00:22N 22°28' E 113°53'0 0.1
2014-Jul-20 23:31N 22°28' E 113°53'0 0.0
2014-Jul-20 22:28N 22°28' E 113°53'0 0.0
2014-Jul-20 21:31N 22°28' E 113°53'0 0.1
2014-Jul-20 20:28N 22°28' E 113°53'0 0.1
2014-Jul-20 19:28N 22°28' E 113°53'0 0.0
2014-Jul-20 18:28N 22°28' E 113°53'0 0.0
2014-Jul-20 17:28N 22°28' E 113°53'0 0.0
2014-Jul-20 16:31N 22°28' E 113°53'0 0.0
2014-Jul-20 14:28N 22°28' E 113°53'0 0.0
2014-Jul-20 13:04N 22°28' E 113°53'0 0.0
2014-Jul-20 11:13N 22°28' E 113°53'0 0.0
2014-Jul-20 10:19N 22°28' E 113°53'0 0.1
2014-Jul-20 09:32N 22°28' E 113°53'0 0.1
2014-Jul-20 06:32N 22°28' E 113°52'8 7.4
2014-Jul-20 05:30N 22°21' E 113°56'17613.5
2014-Jul-19 16:28N 22°47' E 117°05'5016.4
2014-Jul-19 13:25N 23°20' E 117°45'1517.7
2014-Jul-19 12:33N 23°31' E 117°57'1717.4
2014-Jul-19 11:33N 23°43' E 118°11'1716.5
2014-Jul-19 10:32N 23°50' E 118°27'1616.7
2014-Jul-19 09:34N 24°03' E 118°38'2016.0
2014-Jul-19 08:20N 24°15' E 118°55'1816.0
2014-Jul-19 07:13N 24°27' E 119°10'1416.0
2014-Jul-19 06:22N 24°35' E 119°22'  
Track history (hours):
 
Tides and Currents Weather Stations Pressure Air Temp Water Temp Dewpoint Dewpoint Depression Visibility Wind Speed Wind Dir Waves Ship Positions

MSC Krittika

Last reported at 2014-Jul-28 19:20 UTC. Time now 2014-Jul-28 22:29 UTC.
Position N 34°38' E 138°13'.

Length 202 m; draft 8.2 m.

Type: Ship (hazmat cat A). MMSI: 354725000.

Date/timePositionNaut miles runAvg speedWind from/ knotsBaromVisibWave heightAir tempDewpointWater temp
2014-Jul-28 19:20N 34°38' E 138°13'0 0.0
2014-Jul-28 18:32N 34°38' E 138°13'166 3.6
2014-Jul-26 20:33N 33°55' E 134°58'1414.2
2014-Jul-26 19:34N 34°09' E 134°56'1 1.1
2014-Jul-26 18:33N 34°10' E 134°57'1 0.6
2014-Jul-26 17:33N 34°10' E 134°57'0 0.3
2014-Jul-26 16:33N 34°11' E 134°57'1 0.8
2014-Jul-26 15:33N 34°11' E 134°57'1312.7
2014-Jul-26 14:32N 34°24' E 135°02'1616.5
2014-Jul-26 13:33N 34°36' E 135°15'5 3.9
2014-Jul-26 12:22N 34°40' E 135°14'0 0.0
2014-Jul-26 11:28N 34°40' E 135°14'0 0.0
2014-Jul-26 10:16N 34°40' E 135°14'0 0.0
2014-Jul-26 09:28N 34°40' E 135°14'0 0.0
2014-Jul-26 08:28N 34°40' E 135°14'0 0.0
2014-Jul-26 07:28N 34°40' E 135°14'0 0.0
2014-Jul-26 06:28N 34°40' E 135°14'0 0.0
2014-Jul-26 05:28N 34°40' E 135°14'0 0.0
2014-Jul-26 04:22N 34°40' E 135°14'3 4.2
2014-Jul-26 03:33N 34°37' E 135°17'1313.5
2014-Jul-26 02:34N 34°26' E 135°07'1212.2
2014-Jul-26 01:33N 34°16' E 134°59'1110.8
2014-Jul-26 00:33N 34°05' E 134°59'1313.0
2014-Jul-25 23:33N 33°52' E 134°59'3216.2
2014-Jul-25 21:33N 33°24' E 134°41'2319.5
2014-Jul-25 20:24N 33°07' E 134°23'21013.1
2014-Jul-25 04:26N 34°03' E 130°21'1213.0
2014-Jul-25 03:33N 33°51' E 130°20'1312.8
2014-Jul-25 02:33N 33°39' E 130°18'5 4.8
2014-Jul-25 01:32N 33°39' E 130°24'0 0.0
2014-Jul-25 00:32N 33°39' E 130°24'0 0.0
2014-Jul-24 23:32N 33°39' E 130°24'0 0.0
2014-Jul-24 22:32N 33°39' E 130°24'0 0.0
2014-Jul-24 21:32N 33°39' E 130°24'0 0.0
2014-Jul-24 20:32N 33°39' E 130°24'0 0.0
2014-Jul-24 19:32N 33°39' E 130°24'0 0.0
2014-Jul-24 18:32N 33°39' E 130°24'0 0.0
2014-Jul-24 17:32N 33°39' E 130°24'0 0.0
2014-Jul-24 16:32N 33°39' E 130°24'0 0.0
2014-Jul-24 15:32N 33°39' E 130°24'0 0.0
2014-Jul-24 14:32N 33°39' E 130°24'0 0.0
2014-Jul-24 13:32N 33°39' E 130°24'0 0.0
2014-Jul-24 12:32N 33°39' E 130°24'0 0.2
2014-Jul-24 11:32N 33°39' E 130°24'7 7.4
2014-Jul-24 10:33N 33°41' E 130°15'5 5.2
2014-Jul-24 09:33N 33°44' E 130°10'1514.7
2014-Jul-24 08:33N 33°41' E 129°53'78416.6
2014-Jul-22 09:23N 24°30' E 119°16'5416.9
2014-Jul-22 06:09N 23°57' E 118°28'1017.2
2014-Jul-22 05:33N 23°50' E 118°20'1817.4
2014-Jul-22 04:30N 23°39' E 118°05'1717.0
2014-Jul-22 03:32N 23°27' E 117°52'1716.4
2014-Jul-22 02:29N 23°15' E 117°38'3917.0
2014-Jul-22 00:11N 22°48' E 117°07'17015.7
2014-Jul-21 13:19N 22°18' E 114°06'1011.1
2014-Jul-21 12:23N 22°22' E 113°55'6 6.7
2014-Jul-21 11:33N 22°27' E 113°53'1 0.6
2014-Jul-21 09:28N 22°28' E 113°53'0 0.1
2014-Jul-21 08:22N 22°28' E 113°53'0 0.0
2014-Jul-21 07:10N 22°28' E 113°53'0 0.1
2014-Jul-21 06:22N 22°28' E 113°53'0 0.0
2014-Jul-21 05:22N 22°28' E 113°53'0 0.1
2014-Jul-21 04:28N 22°28' E 113°53'0 0.0
2014-Jul-21 03:16N 22°28' E 113°53'0 0.1
2014-Jul-21 02:16N 22°28' E 113°53'0 0.0
2014-Jul-21 01:28N 22°28' E 113°53'0 0.0
2014-Jul-21 00:22N 22°28' E 113°53'0 0.1
2014-Jul-20 23:31N 22°28' E 113°53'0 0.0
2014-Jul-20 22:28N 22°28' E 113°53'0 0.0
2014-Jul-20 21:31N 22°28' E 113°53'0 0.1
2014-Jul-20 20:28N 22°28' E 113°53'0 0.1
2014-Jul-20 19:28N 22°28' E 113°53'0 0.0
2014-Jul-20 18:28N 22°28' E 113°53'0 0.0
2014-Jul-20 17:28N 22°28' E 113°53'0 0.0
2014-Jul-20 16:31N 22°28' E 113°53'0 0.0
2014-Jul-20 14:28N 22°28' E 113°53'0 0.0
2014-Jul-20 13:04N 22°28' E 113°53'0 0.0
2014-Jul-20 11:13N 22°28' E 113°53'0 0.0
2014-Jul-20 10:19N 22°28' E 113°53'0 0.1
2014-Jul-20 09:32N 22°28' E 113°53'0 0.1
2014-Jul-20 06:32N 22°28' E 113°52'8 7.4
2014-Jul-20 05:30N 22°21' E 113°56'17613.5
2014-Jul-19 16:28N 22°47' E 117°05'5016.4
2014-Jul-19 13:25N 23°20' E 117°45'1517.7
2014-Jul-19 12:33N 23°31' E 117°57'1717.4
2014-Jul-19 11:33N 23°43' E 118°11'1716.5
2014-Jul-19 10:32N 23°50' E 118°27'1616.7
2014-Jul-19 09:34N 24°03' E 118°38'2016.0
2014-Jul-19 08:20N 24°15' E 118°55'1816.0
2014-Jul-19 07:13N 24°27' E 119°10'1416.0
2014-Jul-19 06:22N 24°35' E 119°22'  

Dump ship's entire track history